sensor_id;sensor_type;location;lat;lon;timestamp;temperature;humidity
71177;DHT22;58877;51.992;4.504;2022-07-19T00:00:02;24.01;58.84
71177;DHT22;58877;51.992;4.504;2022-07-19T00:02:30;23.98;58.35
71177;DHT22;58877;51.992;4.504;2022-07-19T00:04:55;23.98;57.76
71177;DHT22;58877;51.992;4.504;2022-07-19T00:07:21;24.02;57.37
71177;DHT22;58877;51.992;4.504;2022-07-19T00:09:46;24.02;58.33
71177;DHT22;58877;51.992;4.504;2022-07-19T00:12:12;23.98;59.40
71177;DHT22;58877;51.992;4.504;2022-07-19T00:14:39;23.95;59.72
71177;DHT22;58877;51.992;4.504;2022-07-19T00:17:05;23.86;59.86
71177;DHT22;58877;51.992;4.504;2022-07-19T00:19:30;23.81;60.22
71177;DHT22;58877;51.992;4.504;2022-07-19T00:21:56;23.71;60.61
71177;DHT22;58877;51.992;4.504;2022-07-19T00:24:21;23.65;60.54
71177;DHT22;58877;51.992;4.504;2022-07-19T00:26:47;23.62;60.36
71177;DHT22;58877;51.992;4.504;2022-07-19T00:29:13;23.57;60.12
71177;DHT22;58877;51.992;4.504;2022-07-19T00:31:38;23.53;60.51
71177;DHT22;58877;51.992;4.504;2022-07-19T00:34:04;23.51;60.83
71177;DHT22;58877;51.992;4.504;2022-07-19T00:36:29;23.50;61.00
71177;DHT22;58877;51.992;4.504;2022-07-19T00:38:55;23.43;61.50
71177;DHT22;58877;51.992;4.504;2022-07-19T00:41:20;23.38;61.14
71177;DHT22;58877;51.992;4.504;2022-07-19T00:43:46;23.34;61.29
71177;DHT22;58877;51.992;4.504;2022-07-19T00:46:17;23.40;60.51
71177;DHT22;58877;51.992;4.504;2022-07-19T00:48:43;23.43;58.95
71177;DHT22;58877;51.992;4.504;2022-07-19T00:51:10;23.34;59.23
71177;DHT22;58877;51.992;4.504;2022-07-19T00:53:37;23.21;61.17
71177;DHT22;58877;51.992;4.504;2022-07-19T00:56:06;23.14;61.08
71177;DHT22;58877;51.992;4.504;2022-07-19T00:58:32;23.11;61.80
71177;DHT22;58877;51.992;4.504;2022-07-19T01:00:59;23.17;61.52
71177;DHT22;58877;51.992;4.504;2022-07-19T01:03:25;23.20;61.75
71177;DHT22;58877;51.992;4.504;2022-07-19T01:05:51;23.20;61.53
71177;DHT22;58877;51.992;4.504;2022-07-19T01:08:17;23.21;61.47
71177;DHT22;58877;51.992;4.504;2022-07-19T01:10:43;23.18;61.34
71177;DHT22;58877;51.992;4.504;2022-07-19T01:13:12;23.13;60.14
71177;DHT22;58877;51.992;4.504;2022-07-19T01:15:40;23.06;59.69
71177;DHT22;58877;51.992;4.504;2022-07-19T01:18:07;23.02;59.85
71177;DHT22;58877;51.992;4.504;2022-07-19T01:20:33;23.06;59.64
71177;DHT22;58877;51.992;4.504;2022-07-19T01:22:59;23.13;58.38
71177;DHT22;58877;51.992;4.504;2022-07-19T01:25:27;23.16;59.49
71177;DHT22;58877;51.992;4.504;2022-07-19T01:27:54;23.04;60.63
71177;DHT22;58877;51.992;4.504;2022-07-19T01:30:22;22.97;61.57
71177;DHT22;58877;51.992;4.504;2022-07-19T01:32:49;22.92;61.70
71177;DHT22;58877;51.992;4.504;2022-07-19T01:35:15;22.93;61.03
71177;DHT22;58877;51.992;4.504;2022-07-19T01:37:41;22.90;61.31
71177;DHT22;58877;51.992;4.504;2022-07-19T01:40:10;22.86;61.90
71177;DHT22;58877;51.992;4.504;2022-07-19T01:42:37;22.83;61.79
71177;DHT22;58877;51.992;4.504;2022-07-19T01:45:03;22.82;61.86
71177;DHT22;58877;51.992;4.504;2022-07-19T01:47:29;22.80;61.96
71177;DHT22;58877;51.992;4.504;2022-07-19T01:49:55;22.77;61.26
71177;DHT22;58877;51.992;4.504;2022-07-19T01:52:20;22.73;61.41
71177;DHT22;58877;51.992;4.504;2022-07-19T01:54:46;22.74;61.21
71177;DHT22;58877;51.992;4.504;2022-07-19T01:57:11;22.77;61.49
71177;DHT22;58877;51.992;4.504;2022-07-19T01:59:38;22.79;61.90
71177;DHT22;58877;51.992;4.504;2022-07-19T02:02:04;22.76;61.43
71177;DHT22;58877;51.992;4.504;2022-07-19T02:04:29;22.72;61.42
71177;DHT22;58877;51.992;4.504;2022-07-19T02:06:54;22.69;61.25
71177;DHT22;58877;51.992;4.504;2022-07-19T02:09:20;22.70;60.85
71177;DHT22;58877;51.992;4.504;2022-07-19T02:11:45;22.73;60.98
71177;DHT22;58877;51.992;4.504;2022-07-19T02:14:11;22.72;61.37
71177;DHT22;58877;51.992;4.504;2022-07-19T02:16:37;22.72;61.43
71177;DHT22;58877;51.992;4.504;2022-07-19T02:19:04;22.67;61.24
71177;DHT22;58877;51.992;4.504;2022-07-19T02:21:30;22.66;61.58
71177;DHT22;58877;51.992;4.504;2022-07-19T02:23:56;22.62;61.35
71177;DHT22;58877;51.992;4.504;2022-07-19T02:26:21;22.62;61.30
71177;DHT22;58877;51.992;4.504;2022-07-19T02:28:47;22.56;61.61
71177;DHT22;58877;51.992;4.504;2022-07-19T02:31:12;22.59;60.95
71177;DHT22;58877;51.992;4.504;2022-07-19T02:33:38;22.63;60.35
71177;DHT22;58877;51.992;4.504;2022-07-19T02:36:04;22.60;61.36
71177;DHT22;58877;51.992;4.504;2022-07-19T02:38:30;22.56;61.81
71177;DHT22;58877;51.992;4.504;2022-07-19T02:40:56;22.49;61.92
71177;DHT22;58877;51.992;4.504;2022-07-19T02:43:21;22.49;61.71
71177;DHT22;58877;51.992;4.504;2022-07-19T02:45:47;22.53;60.49
71177;DHT22;58877;51.992;4.504;2022-07-19T02:48:12;22.50;61.49
71177;DHT22;58877;51.992;4.504;2022-07-19T02:50:38;22.46;61.57
71177;DHT22;58877;51.992;4.504;2022-07-19T02:53:04;22.42;62.21
71177;DHT22;58877;51.992;4.504;2022-07-19T02:55:29;22.35;62.22
71177;DHT22;58877;51.992;4.504;2022-07-19T02:57:56;22.26;62.16
71177;DHT22;58877;51.992;4.504;2022-07-19T03:00:22;22.29;61.72
71177;DHT22;58877;51.992;4.504;2022-07-19T03:02:47;22.29;62.01
71177;DHT22;58877;51.992;4.504;2022-07-19T03:05:13;22.28;62.19
71177;DHT22;58877;51.992;4.504;2022-07-19T03:07:38;22.25;62.48
71177;DHT22;58877;51.992;4.504;2022-07-19T03:10:04;22.21;62.49
71177;DHT22;58877;51.992;4.504;2022-07-19T03:12:30;22.18;62.72
71177;DHT22;58877;51.992;4.504;2022-07-19T03:14:56;22.18;62.54
71177;DHT22;58877;51.992;4.504;2022-07-19T03:17:21;22.15;62.71
71177;DHT22;58877;51.992;4.504;2022-07-19T03:19:47;22.13;62.72
71177;DHT22;58877;51.992;4.504;2022-07-19T03:22:12;22.12;62.64
71177;DHT22;58877;51.992;4.504;2022-07-19T03:24:38;22.06;62.79
71177;DHT22;58877;51.992;4.504;2022-07-19T03:27:04;22.05;63.14
71177;DHT22;58877;51.992;4.504;2022-07-19T03:29:30;22.04;63.13
71177;DHT22;58877;51.992;4.504;2022-07-19T03:31:57;22.08;62.81
71177;DHT22;58877;51.992;4.504;2022-07-19T03:34:23;22.02;62.96
71177;DHT22;58877;51.992;4.504;2022-07-19T03:36:48;21.99;63.17
71177;DHT22;58877;51.992;4.504;2022-07-19T03:39:14;21.99;62.95
71177;DHT22;58877;51.992;4.504;2022-07-19T03:41:40;22.01;63.24
71177;DHT22;58877;51.992;4.504;2022-07-19T03:44:05;22.04;63.27
71177;DHT22;58877;51.992;4.504;2022-07-19T03:46:30;21.99;63.50
71177;DHT22;58877;51.992;4.504;2022-07-19T03:48:56;21.95;63.21
71177;DHT22;58877;51.992;4.504;2022-07-19T03:51:23;21.94;63.43
71177;DHT22;58877;51.992;4.504;2022-07-19T03:53:49;21.94;63.64
71177;DHT22;58877;51.992;4.504;2022-07-19T03:56:14;21.91;63.36
71177;DHT22;58877;51.992;4.504;2022-07-19T03:58:40;21.89;63.92
71177;DHT22;58877;51.992;4.504;2022-07-19T04:01:06;21.91;64.14
71177;DHT22;58877;51.992;4.504;2022-07-19T04:03:38;21.91;64.33
71177;DHT22;58877;51.992;4.504;2022-07-19T04:06:09;21.94;63.85
71177;DHT22;58877;51.992;4.504;2022-07-19T04:08:34;21.97;62.98
71177;DHT22;58877;51.992;4.504;2022-07-19T04:11:00;22.05;63.54
71177;DHT22;58877;51.992;4.504;2022-07-19T04:13:26;22.08;63.19
71177;DHT22;58877;51.992;4.504;2022-07-19T04:15:51;22.09;63.44
71177;DHT22;58877;51.992;4.504;2022-07-19T04:18:17;22.11;62.73
71177;DHT22;58877;51.992;4.504;2022-07-19T04:20:42;22.16;62.98
71177;DHT22;58877;51.992;4.504;2022-07-19T04:23:08;22.23;62.50
71177;DHT22;58877;51.992;4.504;2022-07-19T04:25:34;22.25;62.64
71177;DHT22;58877;51.992;4.504;2022-07-19T04:27:59;22.29;62.36
71177;DHT22;58877;51.992;4.504;2022-07-19T04:30:27;22.38;61.46
71177;DHT22;58877;51.992;4.504;2022-07-19T04:32:53;22.46;61.40
71177;DHT22;58877;51.992;4.504;2022-07-19T04:35:19;22.46;62.14
71177;DHT22;58877;51.992;4.504;2022-07-19T04:37:44;22.52;61.78
71177;DHT22;58877;51.992;4.504;2022-07-19T04:40:11;22.53;61.75
71177;DHT22;58877;51.992;4.504;2022-07-19T04:42:37;22.57;61.94
71177;DHT22;58877;51.992;4.504;2022-07-19T04:45:04;22.55;62.44
71177;DHT22;58877;51.992;4.504;2022-07-19T04:47:29;22.56;62.49
71177;DHT22;58877;51.992;4.504;2022-07-19T04:49:55;22.60;62.13
71177;DHT22;58877;51.992;4.504;2022-07-19T04:52:21;22.63;62.18
71177;DHT22;58877;51.992;4.504;2022-07-19T04:54:46;22.66;62.46
71177;DHT22;58877;51.992;4.504;2022-07-19T04:57:12;22.70;63.16
71177;DHT22;58877;51.992;4.504;2022-07-19T04:59:39;22.76;62.62
71177;DHT22;58877;51.992;4.504;2022-07-19T05:02:04;22.87;62.14
71177;DHT22;58877;51.992;4.504;2022-07-19T05:04:30;22.92;62.20
71177;DHT22;58877;51.992;4.504;2022-07-19T05:06:56;22.94;62.21
71177;DHT22;58877;51.992;4.504;2022-07-19T05:09:25;23.03;61.92
71177;DHT22;58877;51.992;4.504;2022-07-19T05:11:52;23.14;60.75
71177;DHT22;58877;51.992;4.504;2022-07-19T05:14:19;23.20;60.43
71177;DHT22;58877;51.992;4.504;2022-07-19T05:16:48;23.27;60.81
71177;DHT22;58877;51.992;4.504;2022-07-19T05:19:17;23.38;60.09
71177;DHT22;58877;51.992;4.504;2022-07-19T05:21:43;23.46;59.84
71177;DHT22;58877;51.992;4.504;2022-07-19T05:24:09;23.55;59.39
71177;DHT22;58877;51.992;4.504;2022-07-19T05:26:34;23.68;59.65
71177;DHT22;58877;51.992;4.504;2022-07-19T05:29:02;23.71;59.64
71177;DHT22;58877;51.992;4.504;2022-07-19T05:31:28;23.84;59.08
71177;DHT22;58877;51.992;4.504;2022-07-19T05:33:53;23.89;58.48
71177;DHT22;58877;51.992;4.504;2022-07-19T05:36:19;23.99;58.41
71177;DHT22;58877;51.992;4.504;2022-07-19T05:38:44;24.09;58.05
71177;DHT22;58877;51.992;4.504;2022-07-19T05:41:10;24.18;58.44
71177;DHT22;58877;51.992;4.504;2022-07-19T05:43:37;24.32;57.94
71177;DHT22;58877;51.992;4.504;2022-07-19T05:46:04;24.37;57.96
71177;DHT22;58877;51.992;4.504;2022-07-19T05:48:31;24.49;57.51
71177;DHT22;58877;51.992;4.504;2022-07-19T05:50:57;24.57;57.16
71177;DHT22;58877;51.992;4.504;2022-07-19T05:53:24;24.62;56.99
71177;DHT22;58877;51.992;4.504;2022-07-19T05:55:49;24.73;57.07
71177;DHT22;58877;51.992;4.504;2022-07-19T05:58:15;24.83;56.39
71177;DHT22;58877;51.992;4.504;2022-07-19T06:00:44;24.98;55.52
71177;DHT22;58877;51.992;4.504;2022-07-19T06:03:30;25.11;55.11
71177;DHT22;58877;51.992;4.504;2022-07-19T06:05:55;25.21;54.86
71177;DHT22;58877;51.992;4.504;2022-07-19T06:08:21;25.37;54.33
71177;DHT22;58877;51.992;4.504;2022-07-19T06:10:53;25.48;54.24
71177;DHT22;58877;51.992;4.504;2022-07-19T06:13:22;25.58;54.13
71177;DHT22;58877;51.992;4.504;2022-07-19T06:15:47;25.68;54.07
71177;DHT22;58877;51.992;4.504;2022-07-19T06:18:16;25.77;53.48
71177;DHT22;58877;51.992;4.504;2022-07-19T06:20:41;25.84;53.53
71177;DHT22;58877;51.992;4.504;2022-07-19T06:23:07;25.98;52.36
71177;DHT22;58877;51.992;4.504;2022-07-19T06:25:32;26.09;51.88
71177;DHT22;58877;51.992;4.504;2022-07-19T06:27:58;26.18;51.42
71177;DHT22;58877;51.992;4.504;2022-07-19T06:30:24;26.29;51.11
71177;DHT22;58877;51.992;4.504;2022-07-19T06:32:50;26.40;51.41
71177;DHT22;58877;51.992;4.504;2022-07-19T06:35:15;26.52;50.85
71177;DHT22;58877;51.992;4.504;2022-07-19T06:37:40;26.59;51.85
71177;DHT22;58877;51.992;4.504;2022-07-19T06:40:06;26.69;50.72
71177;DHT22;58877;51.992;4.504;2022-07-19T06:42:32;26.83;50.42
71177;DHT22;58877;51.992;4.504;2022-07-19T06:44:58;26.91;50.33
71177;DHT22;58877;51.992;4.504;2022-07-19T06:47:27;27.01;49.69
71177;DHT22;58877;51.992;4.504;2022-07-19T06:49:53;27.17;48.77
71177;DHT22;58877;51.992;4.504;2022-07-19T06:52:19;27.28;48.52
71177;DHT22;58877;51.992;4.504;2022-07-19T06:54:44;27.41;47.78
71177;DHT22;58877;51.992;4.504;2022-07-19T06:57:09;27.54;47.94
71177;DHT22;58877;51.992;4.504;2022-07-19T06:59:35;27.71;47.31
71177;DHT22;58877;51.992;4.504;2022-07-19T07:02:00;27.92;47.67
71177;DHT22;58877;51.992;4.504;2022-07-19T07:04:27;28.05;47.15
71177;DHT22;58877;51.992;4.504;2022-07-19T07:06:52;28.20;47.21
71177;DHT22;58877;51.992;4.504;2022-07-19T07:09:18;28.36;46.54
71177;DHT22;58877;51.992;4.504;2022-07-19T07:11:43;28.49;46.73
71177;DHT22;58877;51.992;4.504;2022-07-19T07:14:09;28.64;46.07
71177;DHT22;58877;51.992;4.504;2022-07-19T07:16:34;28.86;45.60
71177;DHT22;58877;51.992;4.504;2022-07-19T07:19:00;28.98;45.06
71177;DHT22;58877;51.992;4.504;2022-07-19T07:21:25;29.11;45.11
71177;DHT22;58877;51.992;4.504;2022-07-19T07:23:51;29.28;44.57
71177;DHT22;58877;51.992;4.504;2022-07-19T07:26:16;29.44;44.32
71177;DHT22;58877;51.992;4.504;2022-07-19T07:28:42;29.62;43.75
71177;DHT22;58877;51.992;4.504;2022-07-19T07:31:07;29.78;43.44
71177;DHT22;58877;51.992;4.504;2022-07-19T07:33:33;29.96;43.44
71177;DHT22;58877;51.992;4.504;2022-07-19T07:35:58;30.12;43.79
71177;DHT22;58877;51.992;4.504;2022-07-19T07:38:24;30.25;42.53
71177;DHT22;58877;51.992;4.504;2022-07-19T07:40:49;30.47;43.17
71177;DHT22;58877;51.992;4.504;2022-07-19T07:43:15;30.63;41.66
71177;DHT22;58877;51.992;4.504;2022-07-19T07:45:40;30.64;40.17
71177;DHT22;58877;51.992;4.504;2022-07-19T07:48:05;30.78;41.39
71177;DHT22;58877;51.992;4.504;2022-07-19T07:50:31;30.95;41.52
71177;DHT22;58877;51.992;4.504;2022-07-19T07:52:57;31.20;41.52
71177;DHT22;58877;51.992;4.504;2022-07-19T07:55:22;31.21;40.41
71177;DHT22;58877;51.992;4.504;2022-07-19T07:57:48;31.35;41.95
71177;DHT22;58877;51.992;4.504;2022-07-19T08:00:14;31.53;41.09
71177;DHT22;58877;51.992;4.504;2022-07-19T08:02:41;31.55;39.69
71177;DHT22;58877;51.992;4.504;2022-07-19T08:05:07;31.63;39.89
71177;DHT22;58877;51.992;4.504;2022-07-19T08:07:33;31.79;39.48
71177;DHT22;58877;51.992;4.504;2022-07-19T08:09:58;31.95;38.44
71177;DHT22;58877;51.992;4.504;2022-07-19T08:12:25;31.97;38.63
71177;DHT22;58877;51.992;4.504;2022-07-19T08:14:51;31.99;38.93
71177;DHT22;58877;51.992;4.504;2022-07-19T08:17:16;32.19;39.41
71177;DHT22;58877;51.992;4.504;2022-07-19T08:19:42;32.26;37.79
71177;DHT22;58877;51.992;4.504;2022-07-19T08:22:07;32.41;38.15
71177;DHT22;58877;51.992;4.504;2022-07-19T08:24:32;32.57;38.13
71177;DHT22;58877;51.992;4.504;2022-07-19T08:26:58;32.70;37.25
71177;DHT22;58877;51.992;4.504;2022-07-19T08:29:24;32.76;36.60
71177;DHT22;58877;51.992;4.504;2022-07-19T08:31:49;32.90;36.89
71177;DHT22;58877;51.992;4.504;2022-07-19T08:34:15;32.92;36.44
71177;DHT22;58877;51.992;4.504;2022-07-19T08:36:40;32.92;36.04
71177;DHT22;58877;51.992;4.504;2022-07-19T08:39:06;32.94;35.44
71177;DHT22;58877;51.992;4.504;2022-07-19T08:41:31;33.03;35.27
71177;DHT22;58877;51.992;4.504;2022-07-19T08:44:02;33.08;36.06
71177;DHT22;58877;51.992;4.504;2022-07-19T08:46:28;33.22;35.27
71177;DHT22;58877;51.992;4.504;2022-07-19T08:48:54;33.34;35.22
71177;DHT22;58877;51.992;4.504;2022-07-19T08:51:21;33.38;34.55
71177;DHT22;58877;51.992;4.504;2022-07-19T08:53:50;33.48;34.87
71177;DHT22;58877;51.992;4.504;2022-07-19T08:56:18;33.75;34.24
71177;DHT22;58877;51.992;4.504;2022-07-19T08:59:02;34.01;34.05
71177;DHT22;58877;51.992;4.504;2022-07-19T09:01:28;34.09;33.05
71177;DHT22;58877;51.992;4.504;2022-07-19T09:04:10;34.23;34.14
71177;DHT22;58877;51.992;4.504;2022-07-19T09:06:51;34.36;32.73
71177;DHT22;58877;51.992;4.504;2022-07-19T09:09:19;34.46;31.95
71177;DHT22;58877;51.992;4.504;2022-07-19T09:11:48;34.49;31.49
71177;DHT22;58877;51.992;4.504;2022-07-19T09:14:16;34.56;32.57
71177;DHT22;58877;51.992;4.504;2022-07-19T09:19:23;34.76;31.40
71177;DHT22;58877;51.992;4.504;2022-07-19T09:22:01;34.91;32.35
71177;DHT22;58877;51.992;4.504;2022-07-19T09:24:30;35.11;31.37
71177;DHT22;58877;51.992;4.504;2022-07-19T09:29:32;35.27;30.94
71177;DHT22;58877;51.992;4.504;2022-07-19T09:32:04;35.31;29.81
71177;DHT22;58877;51.992;4.504;2022-07-19T09:34:53;35.55;31.19
71177;DHT22;58877;51.992;4.504;2022-07-19T09:37:21;35.65;31.09
71177;DHT22;58877;51.992;4.504;2022-07-19T09:39:56;35.81;30.62
71177;DHT22;58877;51.992;4.504;2022-07-19T09:42:24;35.96;31.11
71177;DHT22;58877;51.992;4.504;2022-07-19T09:45:01;36.11;30.88
71177;DHT22;58877;51.992;4.504;2022-07-19T09:49:58;36.16;30.88
71177;DHT22;58877;51.992;4.504;2022-07-19T09:52:24;36.22;30.46
71177;DHT22;58877;51.992;4.504;2022-07-19T09:54:51;36.26;32.54
71177;DHT22;58877;51.992;4.504;2022-07-19T09:57:22;36.43;32.70
71177;DHT22;58877;51.992;4.504;2022-07-19T09:59:51;36.35;31.79
71177;DHT22;58877;51.992;4.504;2022-07-19T10:02:23;36.37;32.02
71177;DHT22;58877;51.992;4.504;2022-07-19T10:04:50;36.35;31.13
71177;DHT22;58877;51.992;4.504;2022-07-19T10:07:17;36.26;31.64
71177;DHT22;58877;51.992;4.504;2022-07-19T10:09:44;36.22;30.72
71177;DHT22;58877;51.992;4.504;2022-07-19T10:12:11;36.21;31.10
71177;DHT22;58877;51.992;4.504;2022-07-19T10:14:37;36.18;30.67
71177;DHT22;58877;51.992;4.504;2022-07-19T10:17:32;36.21;31.76
71177;DHT22;58877;51.992;4.504;2022-07-19T10:20:01;36.23;31.64
71177;DHT22;58877;51.992;4.504;2022-07-19T10:22:29;36.28;32.68
71177;DHT22;58877;51.992;4.504;2022-07-19T10:24:58;36.19;32.01
71177;DHT22;58877;51.992;4.504;2022-07-19T10:29:52;36.18;31.89
71177;DHT22;58877;51.992;4.504;2022-07-19T10:32:36;36.28;32.38
71177;DHT22;58877;51.992;4.504;2022-07-19T10:35:22;36.35;31.18
71177;DHT22;58877;51.992;4.504;2022-07-19T10:37:50;36.45;31.22
71177;DHT22;58877;51.992;4.504;2022-07-19T10:40:39;36.47;31.01
71177;DHT22;58877;51.992;4.504;2022-07-19T10:43:08;36.50;31.41
71177;DHT22;58877;51.992;4.504;2022-07-19T10:45:36;36.60;30.60
71177;DHT22;58877;51.992;4.504;2022-07-19T10:48:10;36.63;31.48
71177;DHT22;58877;51.992;4.504;2022-07-19T10:51:06;36.52;31.50
71177;DHT22;58877;51.992;4.504;2022-07-19T10:56:23;36.62;30.98
71177;DHT22;58877;51.992;4.504;2022-07-19T10:59:00;36.60;31.64
71177;DHT22;58877;51.992;4.504;2022-07-19T11:01:28;36.69;31.43
71177;DHT22;58877;51.992;4.504;2022-07-19T11:09:52;36.66;30.91
71177;DHT22;58877;51.992;4.504;2022-07-19T11:12:31;36.79;30.70
71177;DHT22;58877;51.992;4.504;2022-07-19T11:14:59;36.75;30.79
71177;DHT22;58877;51.992;4.504;2022-07-19T11:17:25;36.82;31.04
71177;DHT22;58877;51.992;4.504;2022-07-19T11:19:57;36.89;31.21
71177;DHT22;58877;51.992;4.504;2022-07-19T11:22:24;36.99;31.71
71177;DHT22;58877;51.992;4.504;2022-07-19T11:24:49;37.04;30.22
71177;DHT22;58877;51.992;4.504;2022-07-19T11:27:16;37.20;29.62
71177;DHT22;58877;51.992;4.504;2022-07-19T11:30:04;37.26;28.70
71177;DHT22;58877;51.992;4.504;2022-07-19T11:32:30;37.28;29.42
71177;DHT22;58877;51.992;4.504;2022-07-19T11:34:59;37.33;29.34
71177;DHT22;58877;51.992;4.504;2022-07-19T11:37:29;37.47;28.74
71177;DHT22;58877;51.992;4.504;2022-07-19T11:39:55;37.45;27.39
71177;DHT22;58877;51.992;4.504;2022-07-19T11:44:58;37.72;28.20
71177;DHT22;58877;51.992;4.504;2022-07-19T11:47:24;37.82;27.56
71177;DHT22;58877;51.992;4.504;2022-07-19T11:49:49;37.85;28.57
71177;DHT22;58877;51.992;4.504;2022-07-19T11:52:16;37.77;28.42
71177;DHT22;58877;51.992;4.504;2022-07-19T11:54:41;37.82;26.60
71177;DHT22;58877;51.992;4.504;2022-07-19T11:57:24;37.95;27.10
71177;DHT22;58877;51.992;4.504;2022-07-19T11:59:49;37.98;28.19
71177;DHT22;58877;51.992;4.504;2022-07-19T12:02:15;38.02;26.98
71177;DHT22;58877;51.992;4.504;2022-07-19T12:04:41;38.15;27.66
71177;DHT22;58877;51.992;4.504;2022-07-19T12:07:06;38.26;26.30
71177;DHT22;58877;51.992;4.504;2022-07-19T12:09:32;38.28;26.56
71177;DHT22;58877;51.992;4.504;2022-07-19T12:11:59;38.24;26.57
71177;DHT22;58877;51.992;4.504;2022-07-19T12:14:30;38.24;26.53
71177;DHT22;58877;51.992;4.504;2022-07-19T12:17:17;38.14;26.36
71177;DHT22;58877;51.992;4.504;2022-07-19T12:19:48;38.19;26.82
71177;DHT22;58877;51.992;4.504;2022-07-19T12:22:33;38.35;27.93
71177;DHT22;58877;51.992;4.504;2022-07-19T12:24:58;38.49;26.90
71177;DHT22;58877;51.992;4.504;2022-07-19T12:27:24;38.53;25.63
71177;DHT22;58877;51.992;4.504;2022-07-19T12:29:54;38.58;25.90
71177;DHT22;58877;51.992;4.504;2022-07-19T12:34:57;38.62;24.07
71177;DHT22;58877;51.992;4.504;2022-07-19T12:37:32;38.58;24.77
71177;DHT22;58877;51.992;4.504;2022-07-19T12:40:05;38.56;25.58
71177;DHT22;58877;51.992;4.504;2022-07-19T12:45:09;38.55;25.25
71177;DHT22;58877;51.992;4.504;2022-07-19T12:47:35;38.63;26.24
71177;DHT22;58877;51.992;4.504;2022-07-19T12:50:01;38.58;25.35
71177;DHT22;58877;51.992;4.504;2022-07-19T12:52:28;38.63;25.24
71177;DHT22;58877;51.992;4.504;2022-07-19T12:54:53;38.62;25.28
71177;DHT22;58877;51.992;4.504;2022-07-19T12:57:19;38.45;24.91
71177;DHT22;58877;51.992;4.504;2022-07-19T12:59:44;38.49;25.27
71177;DHT22;58877;51.992;4.504;2022-07-19T13:02:13;38.69;25.17
71177;DHT22;58877;51.992;4.504;2022-07-19T13:04:41;38.84;25.06
71177;DHT22;58877;51.992;4.504;2022-07-19T13:07:08;38.84;25.50
71177;DHT22;58877;51.992;4.504;2022-07-19T13:09:36;38.99;24.35
71177;DHT22;58877;51.992;4.504;2022-07-19T13:12:04;39.02;25.12
71177;DHT22;58877;51.992;4.504;2022-07-19T13:14:31;38.95;24.55
71177;DHT22;58877;51.992;4.504;2022-07-19T13:16:57;39.06;24.96
71177;DHT22;58877;51.992;4.504;2022-07-19T13:19:22;39.20;24.55
71177;DHT22;58877;51.992;4.504;2022-07-19T13:21:48;39.10;23.74
71177;DHT22;58877;51.992;4.504;2022-07-19T13:24:14;39.16;24.70
71177;DHT22;58877;51.992;4.504;2022-07-19T13:26:39;39.20;24.50
71177;DHT22;58877;51.992;4.504;2022-07-19T13:29:05;39.30;24.48
71177;DHT22;58877;51.992;4.504;2022-07-19T13:31:31;39.27;22.77
71177;DHT22;58877;51.992;4.504;2022-07-19T13:33:56;39.27;23.46
71177;DHT22;58877;51.992;4.504;2022-07-19T13:36:22;39.44;24.08
71177;DHT22;58877;51.992;4.504;2022-07-19T13:38:47;39.31;22.36
71177;DHT22;58877;51.992;4.504;2022-07-19T13:41:14;39.19;22.86
71177;DHT22;58877;51.992;4.504;2022-07-19T13:43:41;39.37;23.39
71177;DHT22;58877;51.992;4.504;2022-07-19T13:46:06;39.29;21.73
71177;DHT22;58877;51.992;4.504;2022-07-19T13:48:32;39.29;22.73
71177;DHT22;58877;51.992;4.504;2022-07-19T13:50:58;39.47;22.20
71177;DHT22;58877;51.992;4.504;2022-07-19T13:53:23;39.58;22.08
71177;DHT22;58877;51.992;4.504;2022-07-19T13:55:49;39.68;22.45
71177;DHT22;58877;51.992;4.504;2022-07-19T13:58:14;39.74;23.01
71177;DHT22;58877;51.992;4.504;2022-07-19T14:00:41;39.81;23.97
71177;DHT22;58877;51.992;4.504;2022-07-19T14:03:11;39.80;22.92
71177;DHT22;58877;51.992;4.504;2022-07-19T14:05:37;39.95;23.34
71177;DHT22;58877;51.992;4.504;2022-07-19T14:08:04;40.12;22.61
71177;DHT22;58877;51.992;4.504;2022-07-19T14:10:30;40.11;21.60
71177;DHT22;58877;51.992;4.504;2022-07-19T14:12:55;40.12;22.53
71177;DHT22;58877;51.992;4.504;2022-07-19T14:15:21;40.19;22.01
71177;DHT22;58877;51.992;4.504;2022-07-19T14:17:47;40.34;22.36
71177;DHT22;58877;51.992;4.504;2022-07-19T14:20:12;40.41;23.37
71177;DHT22;58877;51.992;4.504;2022-07-19T14:22:38;40.42;22.62
71177;DHT22;58877;51.992;4.504;2022-07-19T14:25:04;40.32;21.67
71177;DHT22;58877;51.992;4.504;2022-07-19T14:27:29;40.28;22.45
71177;DHT22;58877;51.992;4.504;2022-07-19T14:29:55;40.27;21.72
71177;DHT22;58877;51.992;4.504;2022-07-19T14:32:20;40.27;21.03
71177;DHT22;58877;51.992;4.504;2022-07-19T14:34:46;40.09;21.58
71177;DHT22;58877;51.992;4.504;2022-07-19T14:37:11;40.19;22.26
71177;DHT22;58877;51.992;4.504;2022-07-19T14:39:37;40.22;22.82
71177;DHT22;58877;51.992;4.504;2022-07-19T14:42:03;40.49;23.14
71177;DHT22;58877;51.992;4.504;2022-07-19T14:44:28;40.45;22.25
71177;DHT22;58877;51.992;4.504;2022-07-19T14:46:54;40.38;22.89
71177;DHT22;58877;51.992;4.504;2022-07-19T14:49:23;40.45;22.50
71177;DHT22;58877;51.992;4.504;2022-07-19T14:51:49;40.46;22.46
71177;DHT22;58877;51.992;4.504;2022-07-19T14:54:14;40.65;22.14
71177;DHT22;58877;51.992;4.504;2022-07-19T14:56:40;40.86;22.00
71177;DHT22;58877;51.992;4.504;2022-07-19T14:59:05;41.13;21.33
71177;DHT22;58877;51.992;4.504;2022-07-19T15:01:31;41.54;21.38
71177;DHT22;58877;51.992;4.504;2022-07-19T15:03:57;41.90;20.98
71177;DHT22;58877;51.992;4.504;2022-07-19T15:06:22;42.44;20.84
71177;DHT22;58877;51.992;4.504;2022-07-19T15:08:48;42.95;20.51
71177;DHT22;58877;51.992;4.504;2022-07-19T15:11:13;43.50;21.52
71177;DHT22;58877;51.992;4.504;2022-07-19T15:13:39;43.90;20.98
71177;DHT22;58877;51.992;4.504;2022-07-19T15:16:05;44.22;20.34
71177;DHT22;58877;51.992;4.504;2022-07-19T15:18:30;44.50;20.67
71177;DHT22;58877;51.992;4.504;2022-07-19T15:20:57;44.89;20.60
71177;DHT22;58877;51.992;4.504;2022-07-19T15:23:23;45.29;19.85
71177;DHT22;58877;51.992;4.504;2022-07-19T15:25:48;45.54;20.23
71177;DHT22;58877;51.992;4.504;2022-07-19T15:28:14;45.66;19.69
71177;DHT22;58877;51.992;4.504;2022-07-19T15:30:42;45.72;20.38
71177;DHT22;58877;51.992;4.504;2022-07-19T15:33:07;45.81;19.49
71177;DHT22;58877;51.992;4.504;2022-07-19T15:35:33;45.79;19.58
71177;DHT22;58877;51.992;4.504;2022-07-19T15:37:59;45.86;19.07
71177;DHT22;58877;51.992;4.504;2022-07-19T15:40:24;45.64;19.21
71177;DHT22;58877;51.992;4.504;2022-07-19T15:42:51;45.60;19.92
71177;DHT22;58877;51.992;4.504;2022-07-19T15:45:18;45.89;19.45
71177;DHT22;58877;51.992;4.504;2022-07-19T15:47:44;45.80;19.09
71177;DHT22;58877;51.992;4.504;2022-07-19T15:50:11;45.86;19.35
71177;DHT22;58877;51.992;4.504;2022-07-19T15:52:38;46.00;19.28
71177;DHT22;58877;51.992;4.504;2022-07-19T15:55:06;45.94;18.55